Impacts METAR Board
IDs:

KT35 - Cameron Muni, TX, US

Updated at: 1000 UTC 13 Aug 2022
Potential Impact None Slight Moderate High
Time 12/22Z 12/23Z 13/00Z 13/01Z 13/02Z 13/03Z 13/04Z 13/05Z 13/06Z 13/07Z 13/08Z 13/09Z 13/10Z
Temp101 96 94 92 89 86 84 82 82 81 78 77 76
Dewpt65 66 67 68 69 69 70 71 72 72 72 71 71
Altim29.91 29.91 29.91 29.93 29.95 29.96 29.98 29.99 29.99 29.99 29.99 29.99 29.99
VIS10 10 10 10 10 10 10 10 10 10 10 10 10
CIG-- 110 110 -- -- -- -- -- -- -- -- -- --
CoverSCTBKNBKNSCTSCTCLRCLRCLRSCTCLRCLRCLRCLR
FltCatVFRVFRVFRVFRVFRVFRVFRVFRVFRVFRVFRVFRVFR
WX--------------------------
WDir609090120130160170200230220000
WSpd7 9 7 8 4 3 4 3 4 3 0 0 0
WGst-- 14 -- 14 -- -- -- -- -- -- -- -- --
Raw hourly METARs
KT35 122155Z AUTO 06007KT 10SM SCT070 SCT100 38/18 A2991 RMK AO2 LTG DSNT S T03830183
KT35 122255Z AUTO 09009G14KT 10SM SCT070 BKN110 36/19 A2991 RMK AO2 LTG DSNT SE T03550190
KT35 122355Z AUTO 09007KT 10SM BKN110 35/19 A2991 RMK AO2 T03450193 10383 20344
KT35 130055Z AUTO 12008G14KT 10SM SCT110 33/20 A2993 RMK AO2 T03320199
KT35 130155Z AUTO 13004KT 10SM SCT120 32/20 A2995 RMK AO2 T03150203
KT35 130255Z AUTO 16003KT 10SM CLR 30/21 A2996 RMK AO2 T02980207
KT35 130355Z AUTO 17004KT 10SM CLR 29/21 A2998 RMK AO2 T02880210
KT35 130455Z AUTO 20003KT 10SM CLR 28/22 A2999 RMK AO2 T02800216
KT35 130555Z AUTO 23004KT 10SM SCT100 28/22 A2999 RMK AO2 T02750222 10345 20275 403830240
KT35 130655Z AUTO 22003KT 10SM CLR 27/22 A2999 RMK AO2 T02700223
KT35 130755Z AUTO 00000KT 10SM CLR 26/22 A2999 RMK AO2 T02580220
KT35 130855Z AUTO 00000KT 10SM CLR 25/22 A2999 RMK AO2 T02520219
KT35 130955Z AUTO 00000KT 10SM CLR 25/22 A2999 RMK AO2 T02470217